Time;durP1;ratioP1;P1;durP2;ratioP2;P2;SDS_P1;SDS_P2;PMS_P1;PMS_P2;Temp;Humidity;BMP_temperature;BMP_pressure;BME280_temperature;BME280_humidity;BME280_pressure;Samples;Min_cycle;Max_cycle;Signal;HPM_P1;HPM_P2
2022/09/02 00:01:56;;;;;;;0.90;0.67;;;12.10;99.90;;;;;;5059813;28;20352;-79
2022/09/02 00:04:26;;;;;;;2.13;0.90;;;12.10;99.90;;;;;;5061635;28;20220;-79
2022/09/02 00:06:54;;;;;;;1.33;0.83;;;12.10;99.90;;;;;;5057541;28;20323;-79
2022/09/02 00:09:23;;;;;;;1.00;0.77;;;12.10;99.90;;;;;;5056820;28;20225;-79
2022/09/02 00:11:51;;;;;;;2.10;0.90;;;12.00;99.90;;;;;;5065122;28;20225;-79
2022/09/02 00:14:22;;;;;;;0.63;0.63;;;12.00;99.90;;;;;;5061663;28;20215;-79
2022/09/02 00:16:51;;;;;;;1.53;1.00;;;12.00;99.90;;;;;;5056522;28;20234;-79
2022/09/02 00:19:19;;;;;;;1.17;0.70;;;12.00;99.90;;;;;;5061618;28;20302;-79
2022/09/02 00:21:45;;;;;;;1.50;0.63;;;11.90;99.90;;;;;;5061630;28;20278;-80
2022/09/02 00:24:12;;;;;;;0.80;0.80;;;11.90;99.90;;;;;;5063701;28;20391;-80
2022/09/02 00:26:39;;;;;;;0.97;0.87;;;11.90;99.90;;;;;;5071511;28;20303;-80
2022/09/02 00:29:06;;;;;;;3.43;0.90;;;11.80;99.90;;;;;;5061729;28;20223;-80
2022/09/02 00:31:35;;;;;;;2.30;1.00;;;11.80;99.90;;;;;;5060760;28;20284;-80
2022/09/02 00:34:02;;;;;;;1.30;0.63;;;11.80;99.90;;;;;;5066259;28;20268;-80
2022/09/02 00:36:29;;;;;;;0.93;0.87;;;11.80;99.90;;;;;;5063730;28;20314;-81
2022/09/02 00:38:56;;;;;;;1.17;0.80;;;11.80;99.90;;;;;;5062444;28;20233;-80
2022/09/02 00:41:25;;;;;;;3.00;0.97;;;11.70;99.90;;;;;;5057186;28;20253;-80
2022/09/02 00:43:54;;;;;;;2.40;0.70;;;11.70;99.90;;;;;;5061781;28;20234;-81
2022/09/02 00:46:24;;;;;;;1.00;0.70;;;11.70;99.90;;;;;;5061956;28;20226;-81
2022/09/02 00:48:58;;;;;;;1.00;0.80;;;11.70;99.90;;;;;;5064746;28;20615;-80
2022/09/02 00:51:28;;;;;;;1.57;0.80;;;11.60;99.90;;;;;;5053834;28;20328;-80
2022/09/02 00:53:54;;;;;;;1.10;0.90;;;11.60;99.90;;;;;;5064917;28;20219;-81
2022/09/02 00:56:28;;;;;;;0.97;0.80;;;11.60;99.90;;;;;;5064089;28;20310;-80
2022/09/02 00:58:56;;;;;;;1.27;0.70;;;11.50;99.90;;;;;;5061960;28;20222;-80
2022/09/02 01:01:22;;;;;;;1.03;0.70;;;11.60;99.90;;;;;;5061042;28;20231;-80
2022/09/02 01:03:50;;;;;;;1.03;0.80;;;11.50;99.90;;;;;;5060708;28;20237;-80
2022/09/02 01:06:23;;;;;;;1.10;0.77;;;11.50;99.90;;;;;;5063015;28;20230;-80
2022/09/02 01:08:55;;;;;;;1.00;0.60;;;11.50;99.90;;;;;;5057009;28;20230;-80
2022/09/02 01:11:22;;;;;;;1.03;0.80;;;11.50;99.90;;;;;;5060538;28;20218;-79
2022/09/02 01:13:49;;;;;;;1.90;0.87;;;11.50;99.90;;;;;;5057690;28;20221;-79
2022/09/02 01:16:26;;;;;;;1.00;0.80;;;11.40;99.90;;;;;;5057431;28;20223;-79
2022/09/02 01:18:56;;;;;;;2.83;0.93;;;11.40;99.90;;;;;;5057473;28;20320;-79
2022/09/02 01:21:24;;;;;;;1.33;0.80;;;11.40;99.90;;;;;;5057439;28;20311;-79
2022/09/02 01:23:53;;;;;;;1.13;0.80;;;11.30;99.90;;;;;;5059275;28;20229;-79
2022/09/02 01:26:20;;;;;;;1.73;0.80;;;11.30;99.90;;;;;;5052142;28;20733;-79
2022/09/02 01:28:47;;;;;;;4.33;0.80;;;11.30;99.90;;;;;;5061246;28;20251;-79
2022/09/02 01:31:14;;;;;;;0.80;0.80;;;11.30;99.90;;;;;;5063497;28;20293;-79
2022/09/02 01:33:41;;;;;;;1.10;0.80;;;11.20;99.90;;;;;;5058205;28;20322;-78
2022/09/02 01:36:08;;;;;;;2.80;0.63;;;11.20;99.90;;;;;;5060458;28;20260;-78
2022/09/02 01:38:35;;;;;;;1.13;0.80;;;11.20;99.90;;;;;;5058484;28;20326;-79
2022/09/02 01:41:03;;;;;;;2.10;0.80;;;11.10;99.90;;;;;;5061384;28;20236;-78
2022/09/02 01:43:30;;;;;;;0.93;0.80;;;11.10;99.90;;;;;;5054086;28;20712;-78
2022/09/02 01:45:59;;;;;;;1.37;0.80;;;11.10;99.90;;;;;;5055650;28;20224;-79
2022/09/02 01:48:28;;;;;;;1.20;0.90;;;11.10;99.90;;;;;;5058872;28;20228;-79
2022/09/02 01:50:57;;;;;;;4.07;0.80;;;11.00;99.90;;;;;;5062477;28;20214;-78
2022/09/02 01:53:24;;;;;;;1.60;0.80;;;11.00;99.90;;;;;;5064003;28;20907;-80
2022/09/02 01:55:53;;;;;;;0.73;0.73;;;11.00;99.90;;;;;;5067812;28;20229;-79
2022/09/02 01:58:22;;;;;;;1.67;0.90;;;11.00;99.90;;;;;;5058466;28;20221;-80
2022/09/02 02:00:49;;;;;;;1.20;0.73;;;10.90;99.90;;;;;;5066719;28;20248;-79
2022/09/02 02:03:16;;;;;;;1.23;0.70;;;10.90;99.90;;;;;;5064784;28;20735;-79
2022/09/02 02:05:43;;;;;;;1.53;0.90;;;10.90;99.90;;;;;;5065530;28;20286;-80
2022/09/02 02:08:14;;;;;;;1.40;0.77;;;10.90;99.90;;;;;;5057581;28;20227;-79
2022/09/02 02:10:42;;;;;;;1.43;1.00;;;10.90;99.90;;;;;;5065564;28;20885;-79
2022/09/02 02:13:09;;;;;;;2.07;1.00;;;10.80;99.90;;;;;;5062355;28;21111;-79
2022/09/02 02:15:41;;;;;;;2.07;0.80;;;10.80;99.90;;;;;;5057488;28;20279;-80
2022/09/02 02:18:08;;;;;;;2.13;1.00;;;10.80;99.90;;;;;;5063629;28;20846;-80
2022/09/02 02:20:36;;;;;;;1.37;1.00;;;10.80;99.90;;;;;;5064604;28;20231;-80
2022/09/02 02:23:04;;;;;;;1.33;0.83;;;10.80;99.90;;;;;;5061697;28;20226;-80
2022/09/02 02:25:31;;;;;;;1.37;1.00;;;10.70;99.90;;;;;;5065661;28;20229;-80
2022/09/02 02:27:58;;;;;;;1.10;0.90;;;10.70;99.90;;;;;;5061107;28;20250;-80
2022/09/02 02:30:24;;;;;;;1.53;0.80;;;10.70;99.90;;;;;;5059150;28;20308;-80
2022/09/02 02:32:53;;;;;;;1.93;1.00;;;10.70;99.90;;;;;;5064254;28;20317;-79
2022/09/02 02:35:21;;;;;;;0.90;0.67;;;10.70;99.90;;;;;;5062160;28;20249;-79
2022/09/02 02:37:50;;;;;;;1.07;0.90;;;10.70;99.90;;;;;;5062545;28;20224;-79
2022/09/02 02:40:19;;;;;;;1.40;1.00;;;10.70;99.90;;;;;;5060838;28;20786;-79
2022/09/02 02:42:46;;;;;;;3.40;1.10;;;10.70;99.90;;;;;;5061189;28;20933;-78
2022/09/02 02:45:14;;;;;;;1.27;1.10;;;10.70;99.90;;;;;;5060738;28;20699;-78
2022/09/02 02:47:44;;;;;;;1.30;0.80;;;10.70;99.90;;;;;;5056549;28;20235;-78
2022/09/02 02:50:14;;;;;;;2.07;0.90;;;10.70;99.90;;;;;;5060202;28;20230;-78
2022/09/02 02:52:42;;;;;;;1.43;0.90;;;10.70;99.90;;;;;;5059261;28;20234;-78
2022/09/02 02:55:11;;;;;;;1.50;0.70;;;10.70;99.90;;;;;;5056936;28;20221;-77
2022/09/02 02:57:40;;;;;;;1.77;1.13;;;10.70;99.90;;;;;;5056813;28;20230;-78
2022/09/02 03:00:10;;;;;;;1.23;0.73;;;10.70;99.90;;;;;;5055702;28;20220;-78
2022/09/02 03:02:37;;;;;;;1.83;0.90;;;10.70;99.90;;;;;;5059664;28;20282;-78
2022/09/02 03:05:06;;;;;;;1.73;0.90;;;10.60;99.90;;;;;;5060309;28;20940;-77
2022/09/02 03:07:34;;;;;;;1.57;1.00;;;10.60;99.90;;;;;;5054515;28;20227;-77
2022/09/02 03:10:02;;;;;;;4.80;1.10;;;10.60;99.90;;;;;;5062809;28;20228;-78
2022/09/02 03:12:31;;;;;;;1.63;1.00;;;10.60;99.90;;;;;;5058858;28;20233;-79
2022/09/02 03:14:58;;;;;;;1.63;1.00;;;10.60;99.90;;;;;;5062469;28;20219;-79
2022/09/02 03:17:25;;;;;;;3.03;1.30;;;10.60;99.90;;;;;;5062902;28;20289;-79
2022/09/02 03:19:53;;;;;;;1.47;1.30;;;10.50;99.90;;;;;;5062898;28;20227;-79
2022/09/02 03:22:20;;;;;;;1.10;1.00;;;10.50;99.90;;;;;;5057243;28;20704;-79
2022/09/02 03:24:48;;;;;;;1.03;1.00;;;10.50;99.90;;;;;;5061578;28;20230;-79
2022/09/02 03:27:15;;;;;;;1.00;0.90;;;10.50;99.90;;;;;;5061337;28;20243;-78
2022/09/02 03:29:43;;;;;;;1.77;1.10;;;10.50;99.90;;;;;;5064618;28;20878;-76
2022/09/02 03:32:11;;;;;;;1.50;1.17;;;10.50;99.90;;;;;;5066246;28;20294;-76
2022/09/02 03:34:40;;;;;;;2.00;0.90;;;10.50;99.90;;;;;;5063696;28;20662;-76
2022/09/02 03:37:07;;;;;;;1.57;1.30;;;10.50;99.90;;;;;;5065378;28;20229;-76
2022/09/02 03:39:36;;;;;;;2.97;0.80;;;10.50;99.90;;;;;;5060261;28;20223;-75
2022/09/02 03:42:04;;;;;;;1.60;0.90;;;10.50;99.90;;;;;;5072241;28;20219;-76
2022/09/02 03:44:33;;;;;;;2.23;1.03;;;10.50;99.90;;;;;;5063467;28;20641;-76
2022/09/02 03:46:59;;;;;;;1.83;1.10;;;10.50;99.90;;;;;;5081065;28;20251;-76
2022/09/02 03:49:26;;;;;;;1.13;1.03;;;10.40;99.90;;;;;;5073010;28;20903;-77
2022/09/02 03:51:53;;;;;;;2.80;1.20;;;10.50;99.90;;;;;;5060957;28;20287;-76
2022/09/02 03:54:20;;;;;;;1.27;1.17;;;10.40;99.90;;;;;;5060321;28;20224;-77
2022/09/02 03:56:47;;;;;;;1.63;1.00;;;10.40;99.90;;;;;;5076917;28;20781;-77
2022/09/02 03:59:17;;;;;;;2.00;1.50;;;10.40;99.90;;;;;;5061500;28;20266;-77
2022/09/02 04:01:44;;;;;;;1.33;1.23;;;10.40;99.90;;;;;;5067442;28;20408;-77
2022/09/02 04:04:10;;;;;;;1.33;1.13;;;10.40;99.90;;;;;;5061006;28;20880;-77
2022/09/02 04:06:39;;;;;;;1.10;1.00;;;10.40;99.90;;;;;;5059774;28;20251;-76
2022/09/02 04:09:06;;;;;;;1.63;1.27;;;10.40;99.90;;;;;;5066496;28;20311;-76
2022/09/02 04:11:34;;;;;;;1.20;1.10;;;10.40;99.90;;;;;;5064134;28;20223;-76
2022/09/02 04:14:01;;;;;;;3.03;1.20;;;10.30;99.90;;;;;;5071099;28;20225;-76
2022/09/02 04:16:30;;;;;;;1.20;1.10;;;10.30;99.90;;;;;;5063217;28;20227;-76
2022/09/02 04:19:04;;;;;;;1.70;1.20;;;10.30;99.90;;;;;;5064651;28;20325;-76
2022/09/02 04:21:33;;;;;;;2.67;1.23;;;10.30;99.90;;;;;;5060929;28;20555;-75
2022/09/02 04:24:00;;;;;;;2.23;1.30;;;10.30;99.90;;;;;;5064430;28;20466;-77
2022/09/02 04:26:29;;;;;;;1.70;1.30;;;10.30;99.90;;;;;;5066754;28;20693;-79
2022/09/02 04:28:57;;;;;;;1.63;1.10;;;10.20;99.90;;;;;;5055117;28;20249;-77
2022/09/02 04:31:28;;;;;;;3.17;1.03;;;10.30;99.90;;;;;;5066616;28;20238;-78
2022/09/02 04:33:57;;;;;;;1.40;1.23;;;10.30;99.90;;;;;;5078222;28;20883;-77
2022/09/02 04:36:26;;;;;;;2.17;1.40;;;10.20;99.90;;;;;;5062685;28;20277;-78
2022/09/02 04:38:56;;;;;;;1.47;1.30;;;10.20;99.90;;;;;;5062429;28;20333;-75
2022/09/02 04:41:29;;;;;;;1.73;1.30;;;10.30;99.90;;;;;;5053902;28;20222;-76
2022/09/02 04:44:02;;;;;;;1.43;1.33;;;10.30;99.90;;;;;;5059953;28;20240;-76
2022/09/02 04:46:32;;;;;;;2.70;1.50;;;10.30;99.90;;;;;;5043541;28;21012;-76
2022/09/02 04:49:00;;;;;;;1.50;1.20;;;10.30;99.90;;;;;;5058652;28;20795;-76
2022/09/02 04:51:27;;;;;;;1.37;1.27;;;10.30;99.90;;;;;;5061302;28;20705;-76
2022/09/02 04:53:58;;;;;;;1.90;1.20;;;10.30;99.90;;;;;;5059251;28;20223;-76
2022/09/02 04:56:27;;;;;;;1.67;1.20;;;10.30;99.90;;;;;;5060599;28;21777;-75
2022/09/02 04:58:56;;;;;;;1.43;1.10;;;10.30;99.90;;;;;;5059008;28;20660;-77
2022/09/02 05:01:25;;;;;;;4.10;1.47;;;10.30;99.90;;;;;;5057214;28;20323;-76
2022/09/02 05:03:54;;;;;;;1.80;1.20;;;10.30;99.90;;;;;;5054414;28;20231;-76
2022/09/02 05:06:28;;;;;;;1.43;1.20;;;10.20;99.90;;;;;;5058826;28;20700;-78
2022/09/02 05:08:59;;;;;;;1.87;1.30;;;10.30;99.90;;;;;;5058760;28;20220;-75
2022/09/02 05:11:32;;;;;;;2.90;1.63;;;10.30;99.90;;;;;;5064123;28;20215;-76
2022/09/02 05:14:01;;;;;;;1.83;1.20;;;10.30;99.90;;;;;;5058887;28;20253;-75
2022/09/02 05:16:30;;;;;;;1.70;1.30;;;10.30;99.90;;;;;;5060721;28;20239;-76
2022/09/02 05:18:58;;;;;;;3.30;1.30;;;10.30;99.90;;;;;;5063918;28;20579;-75
2022/09/02 05:21:30;;;;;;;2.10;1.30;;;10.30;99.90;;;;;;5058681;28;20358;-76
2022/09/02 05:23:58;;;;;;;1.97;1.40;;;10.30;99.90;;;;;;5062458;28;20260;-76
2022/09/02 05:26:28;;;;;;;2.13;1.13;;;10.30;99.90;;;;;;5057453;28;20701;-75
2022/09/02 05:28:57;;;;;;;1.40;1.30;;;10.40;99.90;;;;;;5069086;28;20302;-75
2022/09/02 05:31:24;;;;;;;2.23;1.10;;;10.40;99.90;;;;;;5059645;28;20240;-75
2022/09/02 05:33:51;;;;;;;1.57;1.17;;;10.50;99.90;;;;;;5063697;28;20247;-75
2022/09/02 05:36:22;;;;;;;1.60;1.30;;;10.50;99.90;;;;;;5060705;28;20876;-76
2022/09/02 05:38:52;;;;;;;1.40;1.20;;;10.50;99.90;;;;;;5059563;28;20228;-75
2022/09/02 05:41:22;;;;;;;1.87;1.37;;;10.60;99.90;;;;;;5061249;28;20212;-76
2022/09/02 05:43:53;;;;;;;1.93;1.30;;;10.60;99.90;;;;;;5063209;28;21085;-75
2022/09/02 05:46:23;;;;;;;2.30;1.30;;;10.60;99.90;;;;;;5064249;28;20282;-76
2022/09/02 05:49:07;;;;;;;1.93;1.20;;;10.70;99.90;;;;;;5060849;28;20719;-75
2022/09/02 05:52:01;;;;;;;1.40;1.23;;;10.70;99.90;;;;;;5060405;28;20225;-76
2022/09/02 05:54:39;;;;;;;2.97;1.43;;;10.80;99.90;;;;;;5058420;28;20783;-76
2022/09/02 05:57:11;;;;;;;2.10;1.20;;;10.80;99.90;;;;;;5057060;28;20217;-76
2022/09/02 05:59:43;;;;;;;1.50;1.30;;;10.90;99.90;;;;;;5065252;28;20775;-76
2022/09/02 06:02:15;;;;;;;2.53;1.20;;;10.90;99.90;;;;;;5070266;28;20328;-76
2022/09/02 06:04:44;;;;;;;1.73;1.30;;;11.00;99.90;;;;;;5065908;28;20358;-76
2022/09/02 06:07:12;;;;;;;1.50;1.20;;;11.00;99.90;;;;;;5065664;28;20284;-76
2022/09/02 06:09:43;;;;;;;2.53;1.13;;;11.00;99.90;;;;;;5065627;28;20225;-76
2022/09/02 06:12:10;;;;;;;1.70;1.03;;;11.10;99.90;;;;;;5055510;28;20263;-76
2022/09/02 06:14:38;;;;;;;2.93;1.30;;;11.20;99.90;;;;;;5062724;28;20823;-76
2022/09/02 06:17:08;;;;;;;2.60;1.13;;;11.20;99.90;;;;;;5060780;28;20226;-76
2022/09/02 06:19:41;;;;;;;1.80;1.20;;;11.30;99.90;;;;;;5062474;28;20272;-76
2022/09/02 06:22:08;;;;;;;1.40;1.20;;;11.30;99.90;;;;;;5062502;28;20879;-76
2022/09/02 06:24:37;;;;;;;3.57;1.20;;;11.40;99.90;;;;;;5062892;28;20929;-76
2022/09/02 06:27:12;;;;;;;2.40;1.20;;;11.40;99.90;;;;;;5063304;28;20229;-76
2022/09/02 06:29:44;;;;;;;1.90;1.07;;;11.50;99.90;;;;;;5065950;28;20896;-76
2022/09/02 06:32:11;;;;;;;1.57;0.97;;;11.60;99.90;;;;;;5051626;28;20305;-76
2022/09/02 06:34:39;;;;;;;1.63;1.37;;;11.60;99.90;;;;;;5055781;28;20227;-76
2022/09/02 06:37:06;;;;;;;2.20;1.27;;;11.70;99.90;;;;;;5064989;28;20238;-76
2022/09/02 06:39:42;;;;;;;2.23;1.00;;;11.70;99.90;;;;;;5066141;28;20309;-76
2022/09/02 06:42:11;;;;;;;2.87;1.07;;;11.80;99.90;;;;;;5062318;28;20483;-75
2022/09/02 06:44:47;;;;;;;1.30;1.10;;;11.90;99.90;;;;;;5065675;28;20236;-76
2022/09/02 06:47:13;;;;;;;1.10;0.70;;;11.90;99.90;;;;;;5062401;28;20233;-76
2022/09/02 06:49:40;;;;;;;2.70;1.10;;;12.00;99.90;;;;;;5064639;28;20226;-75
2022/09/02 06:52:07;;;;;;;1.23;0.80;;;12.00;99.90;;;;;;5058475;28;20329;-75
2022/09/02 06:54:37;;;;;;;1.20;1.10;;;12.10;99.90;;;;;;5072549;28;20219;-75
2022/09/02 06:57:13;;;;;;;1.40;1.00;;;12.20;99.90;;;;;;5052603;28;20226;-75
2022/09/02 06:59:40;;;;;;;2.83;1.00;;;12.30;99.90;;;;;;5072220;28;20227;-76
2022/09/02 07:02:07;;;;;;;1.77;0.90;;;12.30;99.90;;;;;;5063538;28;20315;-77
2022/09/02 07:07:21;;;;;;;1.73;1.00;;;12.40;99.90;;;;;;5053697;28;20225;-77
2022/09/02 07:10:00;;;;;;;1.20;0.97;;;12.50;99.90;;;;;;5053395;28;20250;-76
2022/09/02 07:12:29;;;;;;;3.20;0.90;;;12.50;99.90;;;;;;5057652;28;20237;-76
2022/09/02 07:15:00;;;;;;;2.90;1.07;;;12.60;99.90;;;;;;5053811;28;20893;-76
2022/09/02 07:17:32;;;;;;;1.50;0.90;;;12.60;99.90;;;;;;5060230;28;20645;-76
2022/09/02 07:20:05;;;;;;;1.73;1.10;;;12.70;99.90;;;;;;5060817;28;20846;-76
2022/09/02 07:22:38;;;;;;;1.13;0.97;;;12.80;99.90;;;;;;5068076;28;20223;-76
2022/09/02 07:25:08;;;;;;;1.40;0.90;;;12.90;99.90;;;;;;5062294;28;20230;-76
2022/09/02 07:27:37;;;;;;;1.37;0.80;;;13.00;99.90;;;;;;5062337;28;20434;-77
2022/09/02 07:30:06;;;;;;;1.33;0.90;;;13.00;99.90;;;;;;5055108;28;20226;-76
2022/09/02 07:32:37;;;;;;;2.30;0.80;;;13.10;99.90;;;;;;5066820;28;20856;-76
2022/09/02 07:35:09;;;;;;;2.90;0.80;;;13.20;99.90;;;;;;5058938;28;20248;-76
2022/09/02 07:37:36;;;;;;;1.47;0.87;;;13.30;99.90;;;;;;5074003;28;20215;-76
2022/09/02 07:40:07;;;;;;;1.20;0.80;;;13.40;99.90;;;;;;5063723;28;20330;-76
2022/09/02 07:42:34;;;;;;;0.80;0.70;;;13.50;99.90;;;;;;5060611;28;20219;-76
2022/09/02 07:45:02;;;;;;;3.00;0.80;;;13.50;99.90;;;;;;5067043;28;20329;-76
2022/09/02 07:47:29;;;;;;;1.27;0.77;;;13.70;99.90;;;;;;5058128;28;20223;-76
2022/09/02 07:49:56;;;;;;;1.50;0.67;;;13.90;99.90;;;;;;5062072;28;20223;-76
2022/09/02 07:52:24;;;;;;;1.23;0.83;;;14.40;99.90;;;;;;5066169;28;20238;-76
2022/09/02 07:54:51;;;;;;;1.20;0.77;;;15.20;99.90;;;;;;5061483;28;20235;-76
2022/09/02 07:57:18;;;;;;;1.00;0.85;;;16.00;99.90;;;;;;5070646;28;20707;-76
2022/09/02 07:59:46;;;;;;;0.75;0.60;;;17.00;99.90;;;;;;5060633;28;20286;-76
2022/09/02 08:02:18;;;;;;;2.03;0.80;;;18.00;99.90;;;;;;5062600;28;20306;-77
2022/09/02 08:04:45;;;;;;;0.95;0.70;;;19.00;99.90;;;;;;5060455;28;20223;-77
2022/09/02 08:07:12;;;;;;;0.90;0.60;;;19.90;99.50;;;;;;5060349;28;20216;-77
2022/09/02 08:09:39;;;;;;;1.30;0.80;;;20.70;98.50;;;;;;5071093;28;20280;-77
2022/09/02 08:12:06;;;;;;;0.60;0.60;;;21.40;97.40;;;;;;5066205;28;20223;-77
2022/09/02 08:14:33;;;;;;;0.50;0.50;;;22.10;96.40;;;;;;5067967;28;20226;-77
2022/09/02 08:17:00;;;;;;;1.58;0.50;;;22.70;95.40;;;;;;5066198;28;20277;-77
2022/09/02 08:19:28;;;;;;;1.00;0.55;;;23.40;93.80;;;;;;5061917;28;20664;-77
2022/09/02 08:21:55;;;;;;;0.70;0.65;;;23.90;92.60;;;;;;5076774;28;20222;-76
2022/09/02 08:24:22;;;;;;;0.98;0.55;;;24.40;92.10;;;;;;5060860;28;20216;-77
2022/09/02 08:26:48;;;;;;;0.77;0.60;;;24.90;90.20;;;;;;5066973;28;20232;-77
2022/09/02 08:29:15;;;;;;;1.15;0.80;;;25.40;89.00;;;;;;5065426;28;20318;-77
2022/09/02 08:31:43;;;;;;;0.60;0.52;;;25.70;86.80;;;;;;5064669;28;20258;-77
2022/09/02 08:34:10;;;;;;;0.52;0.40;;;26.10;85.60;;;;;;5065865;28;20222;-77
2022/09/02 08:36:42;;;;;;;1.15;0.57;;;26.40;81.80;;;;;;5071377;28;20340;-77
2022/09/02 08:39:09;;;;;;;0.80;0.55;;;26.60;79.40;;;;;;5061201;28;20216;-77
2022/09/02 08:41:45;;;;;;;3.33;0.80;;;26.80;79.70;;;;;;5062278;28;20235;-77
2022/09/02 08:44:14;;;;;;;1.15;0.40;;;27.10;78.00;;;;;;5061881;28;20223;-77
2022/09/02 08:46:41;;;;;;;1.40;0.60;;;27.40;77.30;;;;;;5053980;28;20884;-77
2022/09/02 08:49:13;;;;;;;0.68;0.50;;;27.60;75.50;;;;;;5071942;28;20232;-77
2022/09/02 08:51:47;;;;;;;2.50;0.50;;;28.00;74.90;;;;;;5057537;28;20250;-77
2022/09/02 08:54:21;;;;;;;1.35;0.60;;;28.20;70.70;;;;;;5072325;28;20226;-77
2022/09/02 08:56:50;;;;;;;0.77;0.57;;;28.40;70.70;;;;;;5062772;28;20732;-77
2022/09/02 08:59:19;;;;;;;1.20;0.60;;;28.60;71.10;;;;;;5062555;28;20411;-77
2022/09/02 09:01:50;;;;;;;0.73;0.70;;;28.80;69.90;;;;;;5059632;28;21072;-77
2022/09/02 09:04:25;;;;;;;0.57;0.52;;;29.00;68.70;;;;;;5057265;28;20889;-77
2022/09/02 09:07:05;;;;;;;0.80;0.52;;;29.30;68.30;;;;;;5064019;28;20227;-77
2022/09/02 09:09:43;;;;;;;1.15;0.50;;;29.50;64.70;;;;;;5059448;28;20223;-77
2022/09/02 09:12:15;;;;;;;1.10;0.50;;;29.70;63.70;;;;;;5066811;28;20219;-77
2022/09/02 09:14:49;;;;;;;0.90;0.55;;;29.80;63.40;;;;;;5076674;28;20230;-77
2022/09/02 09:17:25;;;;;;;0.63;0.40;;;29.80;63.20;;;;;;5060558;28;21973;-77
2022/09/02 09:19:57;;;;;;;1.20;0.50;;;29.80;62.80;;;;;;5061914;28;20223;-77
2022/09/02 09:22:31;;;;;;;1.02;0.40;;;29.80;62.80;;;;;;5059363;28;20231;-77
2022/09/02 09:24:58;;;;;;;2.00;0.70;;;29.90;60.50;;;;;;5071305;28;20555;-77
2022/09/02 09:27:26;;;;;;;0.88;0.50;;;30.10;62.40;;;;;;5065079;28;20246;-77
2022/09/02 09:29:53;;;;;;;0.70;0.60;;;30.20;60.80;;;;;;5064360;28;20237;-77
2022/09/02 09:32:27;;;;;;;2.58;1.33;;;30.40;60.70;;;;;;5047328;28;20623;-77
2022/09/02 09:35:00;;;;;;;1.02;0.50;;;30.50;59.70;;;;;;5056247;28;20218;-77
2022/09/02 09:37:35;;;;;;;1.63;0.60;;;30.80;60.10;;;;;;5058880;28;20251;-77
2022/09/02 09:40:22;;;;;;;0.85;0.50;;;31.10;59.00;;;;;;5050830;28;20871;-77
2022/09/02 09:42:54;;;;;;;1.75;0.60;;;31.30;59.40;;;;;;5059750;28;20680;-77
2022/09/02 09:45:26;;;;;;;1.75;0.60;;;31.60;58.20;;;;;;5065083;28;20227;-78
2022/09/02 09:48:18;;;;;;;0.90;0.63;;;31.80;57.70;;;;;;5060704;28;20230;-79
2022/09/02 09:50:47;;;;;;;2.25;0.60;;;32.00;57.40;;;;;;5056392;28;20684;-78
2022/09/02 09:53:23;;;;;;;2.33;0.70;;;32.20;56.30;;;;;;5064441;28;20227;-77
2022/09/02 09:55:53;;;;;;;0.73;0.50;;;32.40;54.50;;;;;;5060563;28;20742;-77
2022/09/02 09:58:21;;;;;;;0.73;0.52;;;32.50;54.60;;;;;;5063338;28;20330;-77
2022/09/02 10:00:48;;;;;;;0.50;0.43;;;32.70;54.10;;;;;;5057747;28;20228;-77
2022/09/02 10:03:22;;;;;;;1.27;0.50;;;32.60;51.90;;;;;;5066585;28;20313;-78
2022/09/02 10:05:54;;;;;;;0.77;0.50;;;32.40;51.50;;;;;;5067303;28;20218;-78
2022/09/02 10:08:24;;;;;;;1.42;0.70;;;32.10;52.30;;;;;;5077627;28;20246;-78
2022/09/02 10:10:58;;;;;;;3.50;0.52;;;31.80;49.90;;;;;;5060691;28;20308;-78
2022/09/02 10:13:28;;;;;;;1.45;0.57;;;31.50;51.10;;;;;;5065006;28;20820;-79
2022/09/02 10:16:13;;;;;;;0.60;0.60;;;31.40;51.60;;;;;;5062503;28;20382;-78
2022/09/02 10:18:45;;;;;;;0.77;0.70;;;31.20;50.50;;;;;;5056675;28;20268;-78
2022/09/02 10:21:28;;;;;;;1.20;0.45;;;31.10;51.90;;;;;;5051630;28;20215;-81
2022/09/02 10:24:03;;;;;;;1.05;0.70;;;31.20;51.90;;;;;;5053837;28;20243;-81
2022/09/02 10:26:36;;;;;;;0.73;0.50;;;31.20;51.30;;;;;;5054652;28;21014;-80
2022/09/02 10:29:38;;;;;;;0.93;0.70;;;31.40;50.80;;;;;;5061628;28;20755;-80
2022/09/02 10:32:24;;;;;;;1.25;0.60;;;31.50;50.60;;;;;;5064772;28;20257;-81
2022/09/02 10:34:59;;;;;;;1.27;0.68;;;31.50;50.40;;;;;;5063862;28;20227;-80
2022/09/02 10:37:34;;;;;;;0.88;0.60;;;31.60;50.90;;;;;;5060238;28;20258;-80
2022/09/02 10:40:16;;;;;;;0.77;0.50;;;31.60;50.90;;;;;;5065965;28;20219;-80
2022/09/02 10:42:53;;;;;;;2.28;0.68;;;31.70;50.50;;;;;;5063166;28;20222;-81
2022/09/02 10:45:28;;;;;;;0.80;0.73;;;31.70;50.20;;;;;;5063273;28;21474;-80
2022/09/02 10:48:08;;;;;;;0.57;0.50;;;31.80;50.20;;;;;;5069127;28;20309;-80
2022/09/02 10:50:40;;;;;;;2.75;0.70;;;32.00;50.20;;;;;;5064495;28;20371;-81
2022/09/02 10:53:39;;;;;;;2.05;0.85;;;32.00;49.20;;;;;;5062589;28;20470;-81
2022/09/02 10:56:13;;;;;;;1.85;0.52;;;32.00;47.10;;;;;;5060643;28;20280;-81
2022/09/02 10:58:47;;;;;;;0.70;0.60;;;32.00;47.60;;;;;;5069107;28;20223;-81
2022/09/02 11:01:19;;;;;;;1.17;0.60;;;31.90;47.70;;;;;;5061536;28;20363;-81
2022/09/02 11:03:58;;;;;;;1.05;0.70;;;31.80;48.60;;;;;;5069298;28;20227;-81
2022/09/02 11:06:29;;;;;;;0.70;0.60;;;31.80;48.20;;;;;;5058769;28;20224;-79
2022/09/02 11:09:00;;;;;;;2.00;0.60;;;31.90;48.60;;;;;;5067503;28;20765;-81
2022/09/02 11:11:32;;;;;;;0.90;0.40;;;32.00;48.80;;;;;;5065785;28;20319;-81
2022/09/02 11:14:07;;;;;;;0.70;0.52;;;32.10;47.90;;;;;;5066338;28;20214;-81
2022/09/02 11:16:38;;;;;;;1.95;0.63;;;32.20;45.90;;;;;;5062804;28;20226;-81
2022/09/02 11:19:13;;;;;;;1.10;0.55;;;32.30;46.40;;;;;;5066998;28;20223;-81
2022/09/02 11:21:52;;;;;;;3.45;0.60;;;32.30;46.40;;;;;;5060504;28;20222;-81
2022/09/02 11:24:26;;;;;;;0.68;0.52;;;32.40;46.50;;;;;;5063066;28;20234;-78
2022/09/02 11:27:01;;;;;;;0.60;0.40;;;32.40;44.80;;;;;;5060836;28;20309;-79
2022/09/02 11:29:37;;;;;;;1.77;0.60;;;32.40;45.10;;;;;;5060006;28;20219;-78
2022/09/02 11:32:12;;;;;;;0.88;0.55;;;32.00;44.00;;;;;;5058886;28;20227;-80
2022/09/02 11:34:44;;;;;;;1.85;0.70;;;31.50;44.00;;;;;;5059310;28;20281;-80
2022/09/02 11:37:14;;;;;;;1.52;0.50;;;30.90;45.20;;;;;;5058551;28;20223;-80
2022/09/02 11:39:45;;;;;;;1.40;0.88;;;30.40;46.30;;;;;;5065074;28;20219;-78
2022/09/02 11:42:26;;;;;;;1.10;0.55;;;30.00;46.70;;;;;;5064531;28;20225;-79
2022/09/02 11:45:19;;;;;;;1.50;0.45;;;29.80;46.80;;;;;;5063640;28;20249;-79
2022/09/02 11:48:09;;;;;;;0.55;0.40;;;29.70;47.30;;;;;;5060930;28;20310;-80
2022/09/02 11:50:50;;;;;;;1.65;0.57;;;29.90;47.40;;;;;;5054823;28;20222;-80
2022/09/02 11:53:23;;;;;;;1.38;0.60;;;29.90;46.80;;;;;;5059559;28;20722;-80
2022/09/02 11:55:55;;;;;;;0.98;0.60;;;29.90;46.70;;;;;;5064858;28;20310;-78
2022/09/02 11:58:33;;;;;;;0.50;0.50;;;29.90;46.80;;;;;;5056552;28;20216;-80
2022/09/02 12:01:30;;;;;;;1.05;0.73;;;29.90;46.60;;;;;;5060769;28;20225;-80
2022/09/02 12:04:00;;;;;;;0.63;0.60;;;29.80;47.20;;;;;;5060368;28;20219;-80
2022/09/02 12:06:27;;;;;;;0.95;0.50;;;29.70;47.00;;;;;;5060984;28;20231;-79
2022/09/02 12:09:07;;;;;;;1.98;0.60;;;29.50;48.00;;;;;;5058324;28;20227;-80
2022/09/02 12:11:45;;;;;;;2.47;0.60;;;29.20;47.30;;;;;;5060951;28;20229;-80
2022/09/02 12:14:53;;;;;;;0.70;0.50;;;29.10;47.80;;;;;;5063204;28;20214;-81
2022/09/02 12:17:40;;;;;;;1.98;0.60;;;29.00;47.70;;;;;;5059211;28;20239;-81
2022/09/02 12:20:10;;;;;;;0.70;0.52;;;29.00;47.60;;;;;;5060084;28;20301;-81
2022/09/02 12:22:41;;;;;;;0.75;0.40;;;29.00;47.90;;;;;;5067023;28;20238;-80
2022/09/02 12:25:39;;;;;;;0.65;0.50;;;28.90;47.20;;;;;;5063496;28;20219;-81
2022/09/02 12:28:23;;;;;;;0.98;0.60;;;28.70;47.30;;;;;;5070124;28;20216;-81
2022/09/02 12:31:17;;;;;;;1.25;0.65;;;28.40;47.60;;;;;;5068464;28;20371;-79
2022/09/02 12:33:46;;;;;;;1.30;0.68;;;28.30;48.70;;;;;;5059433;28;20234;-81
2022/09/02 12:36:49;;;;;;;1.30;0.65;;;28.30;48.60;;;;;;5068663;28;20223;-81
2022/09/02 12:39:46;;;;;;;0.82;0.40;;;28.40;47.80;;;;;;5062297;28;20231;-82
2022/09/02 12:42:22;;;;;;;1.85;0.73;;;28.70;47.80;;;;;;5066419;28;20216;-82
2022/09/02 12:44:59;;;;;;;1.08;0.63;;;28.90;48.20;;;;;;5064706;28;20225;-79
2022/09/02 12:47:42;;;;;;;0.75;0.60;;;29.20;48.10;;;;;;5065886;28;20239;-81
2022/09/02 12:50:16;;;;;;;1.33;0.70;;;29.40;47.70;;;;;;5079169;28;20226;-82
2022/09/02 12:52:46;;;;;;;2.70;0.80;;;29.70;47.30;;;;;;5064956;28;20227;-82
2022/09/02 12:55:23;;;;;;;1.60;0.50;;;29.70;46.90;;;;;;5062516;28;20776;-78
2022/09/02 12:57:55;;;;;;;0.80;0.50;;;29.80;46.90;;;;;;5065723;28;20706;-81
2022/09/02 13:00:36;;;;;;;1.10;0.60;;;29.80;47.00;;;;;;5064241;28;20773;-78
2022/09/02 13:03:23;;;;;;;0.88;0.55;;;29.70;46.40;;;;;;5064464;28;20217;-80
2022/09/02 13:05:58;;;;;;;1.67;0.50;;;29.50;46.60;;;;;;5065603;28;20334;-81
2022/09/02 13:08:49;;;;;;;2.15;0.90;;;29.40;46.50;;;;;;5063455;28;20276;-80
2022/09/02 13:11:47;;;;;;;1.20;0.60;;;29.10;46.70;;;;;;5059942;28;20268;-81
2022/09/02 13:14:46;;;;;;;1.58;0.80;;;28.90;46.10;;;;;;5079520;28;20891;-82